Time;durP1;ratioP1;P1;durP2;ratioP2;P2;SDS_P1;SDS_P2;PMS_P1;PMS_P2;Temp;Humidity;BMP_temperature;BMP_pressure;BME280_temperature;BME280_humidity;BME280_pressure;Samples;Min_cycle;Max_cycle;Signal;HPM_P1;HPM_P2
2021/07/26 21:45:30;;;;;;;39.40;11.38;;;;;;;23.57;61.71;101176.56;5113720;27;21545;-68
2021/07/26 21:47:56;;;;;;;45.38;10.45;;;;;;;23.87;61.10;101167.59;5102031;28;20035;-61
2021/07/26 21:50:21;;;;;;;29.13;12.65;;;;;;;22.55;63.09;101168.59;5106333;28;20028;-69
2021/07/26 21:52:47;;;;;;;46.42;11.50;;;;;;;22.88;64.19;101170.16;5324858;22;20052;-71
2021/07/26 21:55:13;;;;;;;32.83;11.65;;;;;;;21.19;70.28;101168.28;5307104;22;20060;-66
2021/07/26 21:57:38;;;;;;;30.17;12.95;;;;;;;21.20;68.67;101172.63;5077491;28;20323;-68
2021/07/26 22:00:05;;;;;;;28.58;10.70;;;;;;;22.12;66.46;101180.22;5073739;28;20247;-69
2021/07/26 22:02:31;;;;;;;21.10;14.52;;;;;;;21.33;65.93;101168.00;5072834;28;20040;-69
2021/07/26 22:04:56;;;;;;;29.02;11.07;;;;;;;21.87;67.69;101166.31;5069597;28;20036;-69
2021/07/26 22:07:22;;;;;;;24.95;15.73;;;;;;;20.70;67.56;101165.03;5071960;28;20432;-69
2021/07/26 22:09:48;;;;;;;26.92;15.35;;;;;;;20.88;69.87;101166.25;5072373;28;20037;-69
2021/07/26 22:12:13;;;;;;;20.05;12.93;;;;;;;21.05;69.77;101164.06;5071760;28;20089;-69
2021/07/26 22:14:39;;;;;;;20.35;12.05;;;;;;;21.01;70.41;101160.81;5071781;28;20036;-69
2021/07/26 22:17:05;;;;;;;21.08;15.68;;;;;;;20.21;69.34;101163.47;5074119;28;20032;-69
2021/07/26 22:19:30;;;;;;;23.08;13.05;;;;;;;20.55;70.43;101159.06;5072346;28;20250;-69
2021/07/26 22:21:55;;;;;;;23.52;14.65;;;;;;;19.92;70.17;101155.91;5073757;28;20044;-69
2021/07/26 22:24:21;;;;;;;27.15;15.50;;;;;;;19.51;74.50;101159.78;5068780;28;20037;-69
2021/07/26 22:26:50;;;;;;;21.40;16.02;;;;;;;18.85;73.56;101157.41;5073171;28;20028;-69
2021/07/26 22:29:16;;;;;;;26.60;17.35;;;;;;;18.44;75.67;101152.31;5072500;28;20040;-69
2021/07/26 22:31:41;;;;;;;27.75;14.95;;;;;;;19.23;76.38;101153.84;5073599;28;20231;-69
2021/07/26 22:34:07;;;;;;;23.38;14.25;;;;;;;19.73;70.79;101146.63;5072337;28;20041;-69
2021/07/26 22:36:32;;;;;;;25.77;15.95;;;;;;;18.93;74.07;101144.44;5072236;28;20111;-69
2021/07/26 22:38:57;;;;;;;22.40;15.75;;;;;;;18.72;74.15;101149.44;5067469;28;20035;-69
2021/07/26 22:41:23;;;;;;;27.55;17.75;;;;;;;18.09;76.54;101150.25;5059581;28;20029;-69
2021/07/26 22:43:48;;;;;;;31.80;17.67;;;;;;;18.03;77.06;101151.53;5070676;28;20054;-69
2021/07/26 22:46:14;;;;;;;27.65;18.02;;;;;;;17.71;78.29;101149.16;5072056;28;20029;-69
2021/07/26 22:48:39;;;;;;;29.88;19.02;;;;;;;17.74;77.85;101151.63;5072256;28;20038;-69
2021/07/26 22:51:04;;;;;;;30.92;18.42;;;;;;;17.57;78.40;101149.22;5071740;28;20032;-69
2021/07/26 22:53:30;;;;;;;28.02;18.45;;;;;;;17.67;77.90;101149.50;5072838;28;20032;-69
2021/07/26 22:55:55;;;;;;;27.33;18.52;;;;;;;17.75;77.89;101152.47;5068686;28;20089;-69
2021/07/26 22:58:21;;;;;;;30.95;19.27;;;;;;;17.88;77.04;101150.72;5060356;28;20131;-69
2021/07/26 23:00:47;;;;;;;29.92;19.55;;;;;;;17.36;78.74;101152.31;5062248;28;20096;-69
2021/07/26 23:03:12;;;;;;;32.22;19.67;;;;;;;17.32;79.02;101164.06;5063659;28;20329;-69
2021/07/26 23:05:38;;;;;;;30.40;18.90;;;;;;;17.40;78.78;101159.09;5063165;28;20033;-69
2021/07/26 23:08:03;;;;;;;33.50;20.55;;;;;;;17.17;79.44;101162.38;5068902;28;20033;-69
2021/07/26 23:10:29;;;;;;;34.25;20.20;;;;;;;17.21;79.61;101166.53;5059678;28;20036;-69
2021/07/26 23:12:54;;;;;;;30.30;20.25;;;;;;;17.24;79.19;101156.59;5061977;28;20035;-69
2021/07/26 23:15:20;;;;;;;35.08;21.40;;;;;;;17.54;78.09;101157.38;5065213;28;20031;-69
2021/07/26 23:17:46;;;;;;;31.00;21.02;;;;;;;17.60;77.62;101165.75;5061098;28;20075;-69
2021/07/26 23:20:12;;;;;;;32.90;22.73;;;;;;;17.10;79.67;101161.94;5066823;28;20029;-69
2021/07/26 23:22:37;;;;;;;39.50;24.17;;;;;;;17.25;79.89;101160.09;5060556;28;20032;-69
2021/07/26 23:25:03;;;;;;;42.58;24.15;;;;;;;17.00;80.88;101168.72;5065848;28;20036;-69
2021/07/26 23:27:29;;;;;;;41.22;25.15;;;;;;;17.07;81.08;101170.03;5062042;28;20032;-69
2021/07/26 23:29:54;;;;;;;33.55;23.33;;;;;;;16.82;81.83;101162.75;5063062;28;20040;-69
2021/07/26 23:32:20;;;;;;;41.33;25.50;;;;;;;16.67;82.17;101162.75;5061731;28;20109;-69
2021/07/26 23:34:45;;;;;;;40.03;25.23;;;;;;;16.93;81.44;101167.41;5063590;28;20037;-69
2021/07/26 23:37:11;;;;;;;38.42;25.63;;;;;;;17.12;81.06;101162.69;5065406;28;20036;-69
2021/07/26 23:39:36;;;;;;;47.17;26.02;;;;;;;16.83;81.93;101169.78;5069941;28;20066;-69
2021/07/26 23:42:02;;;;;;;41.13;27.48;;;;;;;16.72;82.28;101164.25;5082016;28;20030;-69
2021/07/26 23:44:27;;;;;;;43.65;26.90;;;;;;;16.80;81.97;101162.84;5072681;28;20352;-69
2021/07/26 23:46:52;;;;;;;47.88;26.77;;;;;;;16.66;81.91;101165.47;5065876;28;20130;-69
2021/07/26 23:49:18;;;;;;;45.40;28.15;;;;;;;16.68;82.51;101159.16;5075056;28;20330;-69
2021/07/26 23:51:43;;;;;;;35.67;25.55;;;;;;;17.20;81.03;101162.19;5063970;28;20033;-69
2021/07/26 23:54:09;;;;;;;45.08;28.23;;;;;;;16.78;82.13;101164.72;5078311;28;20052;-69
2021/07/26 23:56:34;;;;;;;42.05;25.95;;;;;;;17.57;79.82;101167.75;5062082;28;20066;-69
2021/07/26 23:58:59;;;;;;;43.83;27.73;;;;;;;17.39;80.72;101172.44;5062345;28;20235;-69
